地図

経路データ

SID SEASON NUMBER BASIN SUBBASIN NAME ISO_TIME NATURE LAT LON WMO_WIND WMO_PRES WMO_AGENCY TRACK_TYPE DIST2LAND LANDFALL IFLAG USA_AGENCY USA_ATCF_ID USA_LAT USA_LON USA_RECORD USA_STATUS USA_WIND USA_PRES USA_SSHS USA_R34_NE USA_R34_SE USA_R34_SW USA_R34_NW USA_R50_NE USA_R50_SE USA_R50_SW USA_R50_NW USA_R64_NE USA_R64_SE USA_R64_SW USA_R64_NW USA_POCI USA_ROCI USA_RMW USA_EYE TOKYO_LAT TOKYO_LON TOKYO_GRADE TOKYO_WIND TOKYO_PRES TOKYO_R50_DIR TOKYO_R50_LONG TOKYO_R50_SHORT TOKYO_R30_DIR TOKYO_R30_LONG TOKYO_R30_SHORT TOKYO_LAND CMA_LAT CMA_LON CMA_CAT CMA_WIND CMA_PRES HKO_LAT HKO_LON HKO_CAT HKO_WIND HKO_PRES NEWDELHI_LAT NEWDELHI_LON NEWDELHI_GRADE NEWDELHI_WIND NEWDELHI_PRES NEWDELHI_CI NEWDELHI_DP NEWDELHI_POCI REUNION_LAT REUNION_LON REUNION_TYPE REUNION_WIND REUNION_PRES REUNION_TNUM REUNION_CI REUNION_RMW REUNION_R34_NE REUNION_R34_SE REUNION_R34_SW REUNION_R34_NW REUNION_R50_NE REUNION_R50_SE REUNION_R50_SW REUNION_R50_NW REUNION_R64_NE REUNION_R64_SE REUNION_R64_SW REUNION_R64_NW BOM_LAT BOM_LON BOM_TYPE BOM_WIND BOM_PRES BOM_TNUM BOM_CI BOM_RMW BOM_R34_NE BOM_R34_SE BOM_R34_SW BOM_R34_NW BOM_R50_NE BOM_R50_SE BOM_R50_SW BOM_R50_NW BOM_R64_NE BOM_R64_SE BOM_R64_SW BOM_R64_NW BOM_ROCI BOM_POCI BOM_EYE BOM_POS_METHOD BOM_PRES_METHOD NADI_LAT NADI_LON NADI_CAT NADI_WIND NADI_PRES WELLINGTON_LAT WELLINGTON_LON WELLINGTON_WIND WELLINGTON_PRES DS824_LAT DS824_LON DS824_STAGE DS824_WIND DS824_PRES TD9636_LAT TD9636_LON TD9636_STAGE TD9636_WIND TD9636_PRES TD9635_LAT TD9635_LON TD9635_WIND TD9635_PRES TD9635_ROCI NEUMANN_LAT NEUMANN_LON NEUMANN_CLASS NEUMANN_WIND NEUMANN_PRES MLC_LAT MLC_LON MLC_CLASS MLC_WIND MLC_PRES USA_GUST BOM_GUST BOM_GUST_PER REUNION_GUST REUNION_GUST_PER USA_SEAHGT USA_SEARAD_NE USA_SEARAD_SE USA_SEARAD_SW USA_SEARAD_NW STORM_SPEED STORM_DIR
1992361S23039 1993 133 SI MM NOT_NAMED 1992-12-26 00:00:00 SS -22.7000 39.1000 30 1000 reunion main 359 340 _____O________ -1 -22.7000 39.1000 7 30 1000 9.90000 16 86
1992361S23039 1993 133 SI MM NOT_NAMED 1992-12-26 03:00:00 SS -22.6485 39.9393 main 340 265 _____P________ -1 -22.6485 39.9393 7 30 1000 15 98
1992361S23039 1993 133 SI MM NOT_NAMED 1992-12-26 06:00:00 SS -22.9000 40.7000 30 1000 reunion main 265 232 _____O________ -1 -22.9000 40.7000 7 30 1000 9.90000 16 127
1992361S23039 1993 133 SI MM NOT_NAMED 1992-12-26 09:00:00 SS -23.5947 41.2985 main 232 208 _____P________ -1 -23.5947 41.2985 7 31 1000 15 148
1992361S23039 1993 133 SI MM NOT_NAMED 1992-12-26 12:00:00 SS -24.2000 41.6000 33 1000 reunion main 210 210 _____O________ -1 -24.2000 41.6000 7 33 1000 9.90000 5 160
1992361S23039 1993 133 SI MM NOT_NAMED 1992-12-26 15:00:00 SS -24.0899 41.4902 main 218 216 _____P________ -1 -24.0899 41.4902 7 35 1000 5 318
1992361S23039 1993 133 SI MM NOT_NAMED 1992-12-26 18:00:00 SS -23.8000 41.2000 37 1000 reunion main 244 244 _____O________ -1 -23.8000 41.2000 7 37 1000 9.90000 5 300
1992361S23039 1993 133 SI MM NOT_NAMED 1992-12-26 21:00:00 SS -23.8199 40.9752 main 264 264 _____P________ -1 -23.8199 40.9752 7 35 1000 3 250
1992361S23039 1993 133 SI MM NOT_NAMED 1992-12-27 00:00:00 SS -23.9000 40.9000 33 1000 reunion main 275 254 _____O________ -1 -23.9000 40.9000 7 33 1000 9.90000 1 92
1992361S23039 1993 133 SI MM NOT_NAMED 1992-12-27 03:00:00 SS -23.8250 41.1108 main 254 214 _____P________ -1 -23.8250 41.1108 7 31 1000 5 90
1992361S23039 1993 133 SI MM NOT_NAMED 1992-12-27 06:00:00 SS -23.9000 41.5000 30 1000 reunion main 214 183 _____O________ -1 -23.9000 41.5000 7 30 1000 9.90000 9 127
1992361S23039 1993 133 SI MM NOT_NAMED 1992-12-27 09:00:00 SS -24.3901 41.9341 main 185 145 _____P________ -1 -24.3901 41.9341 7 28 1000 14 143
1992361S23039 1993 133 SI MM NOT_NAMED 1992-12-27 12:00:00 SS -25.0000 42.4000 27 1000 reunion main 148 128 _____O________ -1 -25.0000 42.4000 7 27 1000 9.90000 13 143
1992361S23039 1993 133 SI MM NOT_NAMED 1992-12-27 15:00:00 SS -25.4372 42.7930 main 128 119 _____P________ -1 -25.4372 42.7930 7 27 999 11 138
1992361S23039 1993 133 SI MM NOT_NAMED 1992-12-27 18:00:00 SS -25.8000 43.2000 27 998 reunion main 120 113 _____O________ -1 -25.8000 43.2000 7 27 998 9.90000 11 131
1992361S23039 1993 133 SI MM NOT_NAMED 1992-12-27 21:00:00 SS -26.1376 43.6999 main 113 112 _____P________ -1 -26.1376 43.6999 7 27 998 11 124
1992361S23039 1993 133 SI MM NOT_NAMED 1992-12-28 00:00:00 SS -26.4000 44.2000 27 998 reunion main 124 122 _____O________ -1 -26.4000 44.2000 7 27 998 9.90000 9 118
1992361S23039 1993 133 SI MM NOT_NAMED 1992-12-28 03:00:00 SS -26.5568 44.5709 main 126 118 _____P________ -1 -26.5568 44.5709 7 27 1000 8 113
1992361S23039 1993 133 SI MM NOT_NAMED 1992-12-28 06:00:00 SS -26.7000 45.0000 27 1002 reunion main 124 123 _____O________ -1 -26.7000 45.0000 7 27 1002 9.90000 11 111
1992361S23039 1993 133 SI MM NOT_NAMED 1992-12-28 09:00:00 SS -26.9430 45.6771 main 146 146 _____P________ -1 -26.9430 45.6771 7 25 1002 13 112
1992361S23039 1993 133 SI MM NOT_NAMED 1992-12-28 12:00:00 SS -27.2000 46.4000 23 1002 reunion main 199 199 _____O________ -1 -27.2000 46.4000 7 23 1002 9.90000 12 112
1992361S23039 1993 133 SI MM NOT_NAMED 1992-12-28 15:00:00 SS -27.4068 46.9580 main 246 246 _____P________ -1 -27.4068 46.9580 7 23 1002 11 112
1992361S23039 1993 133 SI MM NOT_NAMED 1992-12-28 18:00:00 SS -27.6000 47.5000 23 1002 reunion main 276 276 _____O________ -1 -27.6000 47.5000 7 23 1002 9.90000 11 110
1992361S23039 1993 133 SI MM NOT_NAMED 1992-12-28 21:00:00 SS -27.7696 48.1134 main 317 317 _____P________ -1 -27.7696 48.1134 7 23 1002 12 109
1992361S23039 1993 133 SI MM NOT_NAMED 1992-12-29 00:00:00 SS -28.0000 48.8000 23 1002 reunion main 370 370 _____O________ -1 -28.0000 48.8000 7 23 1002 9.90000 14 115
1992361S23039 1993 133 SI MM NOT_NAMED 1992-12-29 03:00:00 SS -28.3546 49.5629 main 449 449 _____P________ -1 -28.3546 49.5629 7 23 1002 16 120
1992361S23039 1993 133 SI MM NOT_NAMED 1992-12-29 06:00:00 SS -28.8000 50.4000 23 1002 reunion main 532 532 _____O________ -1 -28.8000 50.4000 7 23 1002 9.90000 18 121
1992361S23039 1993 133 SI MM NOT_NAMED 1992-12-29 09:00:00 SS -29.3082 51.3440 main 632 632 _____P________ -1 -29.3082 51.3440 7 23 1003 19 122
1992361S23039 1993 133 SI MM NOT_NAMED 1992-12-29 12:00:00 SS -29.8000 52.2000 23 1005 reunion main 733 733 _____O________ -1 -29.8000 52.2000 7 23 1005 9.90000 15 125
1992361S23039 1993 133 SI MM NOT_NAMED 1992-12-29 15:00:00 SS -30.1563 52.7543 main 805 805 _____P________ -1 -30.1563 52.7543 7 23 1005 11 129
1992361S23039 1993 133 SI MM NOT_NAMED 1992-12-29 18:00:00 SS -30.5000 53.2000 23 1005 reunion main 856 856 _____O________ -1 -30.5000 53.2000 7 23 1005 9.90000 11 133
1992361S23039 1993 133 SI MM NOT_NAMED 1992-12-29 21:00:00 SS -30.9235 53.7181 main 922 922 _____P________ -1 -30.9235 53.7181 7 23 1005 13 134
1992361S23039 1993 133 SI MM NOT_NAMED 1992-12-30 00:00:00 SS -31.4000 54.3000 23 1005 reunion main 1001 _____O________ -1 -31.4000 54.3000 7 23 1005 9.90000 14 134

IBTrACS Databaseについて

本データベースは、米国NOAAが公開する1842年以降の世界の熱帯低気圧のベストトラックデータアーカイブInternational Best Track Archive for Climate Stewardship (IBTrACS)を、ウェブで閲覧しやすい形式に変換したものです。

最終更新日:2021-10-25